createdAt,value
2017-09-03T00:00:25.919Z,18.2
2017-09-03T00:01:35.946Z,18.17
2017-09-03T00:02:46.288Z,18.14
2017-09-03T00:03:56.310Z,18.19
2017-09-03T00:05:07.213Z,18.14
2017-09-03T00:06:18.425Z,18.2
2017-09-03T00:08:06.394Z,18.2
2017-09-03T00:09:16.760Z,18.19
2017-09-03T00:10:27.092Z,18.17
2017-09-03T00:11:37.439Z,18.21
2017-09-03T00:12:47.807Z,18.2
2017-09-03T00:13:58.200Z,18.16
2017-09-03T00:15:08.550Z,18.14
2017-09-03T00:16:18.588Z,18.05
2017-09-03T00:17:28.925Z,18.03
2017-09-03T00:18:39.265Z,18.08
2017-09-03T00:19:49.343Z,18.02
2017-09-03T00:20:59.685Z,18.03
2017-09-03T00:22:10.024Z,18.01
2017-09-03T00:23:20.380Z,17.95
2017-09-03T00:24:30.728Z,17.94
2017-09-03T00:25:41.070Z,17.9
2017-09-03T00:26:51.416Z,17.96
2017-09-03T00:28:01.740Z,17.88
2017-09-03T00:29:11.761Z,17.88
2017-09-03T00:30:22.105Z,17.81
2017-09-03T00:31:33.067Z,17.66
2017-09-03T00:32:43.421Z,17.63
2017-09-03T00:33:53.774Z,17.49
2017-09-03T00:35:04.120Z,17.57
2017-09-03T00:36:14.150Z,17.6
2017-09-03T00:37:24.495Z,17.49
2017-09-03T00:38:34.515Z,17.47
2017-09-03T00:39:44.843Z,17.49
2017-09-03T00:40:55.193Z,17.43
2017-09-03T00:42:05.535Z,17.36
2017-09-03T00:43:15.941Z,17.32
2017-09-03T00:44:26.268Z,17.3
2017-09-03T00:45:36.626Z,17.31
2017-09-03T00:46:46.977Z,17.3
2017-09-03T00:47:58.760Z,17.32
2017-09-03T00:49:08.850Z,17.21
2017-09-03T00:50:19.196Z,17.27
2017-09-03T00:51:29.525Z,17.28
2017-09-03T00:52:39.554Z,17.18
2017-09-03T00:53:51.758Z,17.25
2017-09-03T00:55:02.097Z,17.21
2017-09-03T00:56:12.104Z,17.12
2017-09-03T00:57:22.444Z,17.21
2017-09-03T00:58:32.150Z,17.27
2017-09-03T00:59:42.185Z,17.25
2017-09-03T01:00:52.517Z,17.27
2017-09-03T01:02:03.852Z,17.22
2017-09-03T01:03:16.466Z,17.15
2017-09-03T01:04:27.619Z,17.24
2017-09-03T01:05:38.741Z,17.25
2017-09-03T01:06:51.576Z,17.22
2017-09-03T01:08:02.840Z,17.18
2017-09-03T01:09:13.182Z,17.25
2017-09-03T01:10:23.514Z,17.22
2017-09-03T01:11:33.854Z,17.18
2017-09-03T01:12:45.128Z,17.17
2017-09-03T01:13:57.072Z,17.21
2017-09-03T01:15:08.707Z,17.15
2017-09-03T01:16:21.701Z,17.24
2017-09-03T01:17:33.272Z,17.06
2017-09-03T01:18:44.823Z,17.13
2017-09-03T01:19:56.267Z,17.1
2017-09-03T01:21:06.685Z,17.17
2017-09-03T01:22:17.811Z,17.12
2017-09-03T01:23:29.317Z,17.1
2017-09-03T01:24:40.802Z,17.06
2017-09-03T01:25:51.142Z,17.07
2017-09-03T01:27:00.833Z,16.99
2017-09-03T01:28:11.604Z,16.99
2017-09-03T01:29:21.938Z,16.95
2017-09-03T01:30:32.583Z,17
2017-09-03T01:31:44.680Z,17.07
2017-09-03T01:32:55.237Z,16.84
2017-09-03T01:34:06.860Z,16.95
2017-09-03T01:35:19.349Z,17.03
2017-09-03T01:36:30.842Z,16.97
2017-09-03T01:37:41.195Z,16.97
2017-09-03T01:38:50.896Z,16.99
2017-09-03T01:40:01.261Z,16.85
2017-09-03T01:41:11.659Z,16.9
2017-09-03T01:42:22.004Z,16.9
2017-09-03T01:43:32.336Z,16.99
2017-09-03T01:44:42.676Z,16.81
2017-09-03T01:45:53.004Z,16.87
2017-09-03T01:47:04.638Z,16.72
2017-09-03T01:48:17.440Z,16.73
2017-09-03T01:49:30.063Z,16.69
2017-09-03T01:50:41.465Z,16.7
2017-09-03T01:51:52.613Z,16.63
2017-09-03T01:53:04.970Z,16.65
2017-09-03T01:54:15.364Z,16.59
2017-09-03T01:55:25.707Z,16.57
2017-09-03T01:56:35.724Z,16.54
2017-09-03T01:57:48.215Z,16.51
2017-09-03T01:58:58.562Z,16.44
2017-09-03T02:00:08.618Z,16.39
2017-09-03T02:01:18.641Z,16.49
2017-09-03T02:02:30.404Z,16.37
2017-09-03T02:03:41.914Z,16.42
2017-09-03T02:04:51.945Z,16.4
2017-09-03T02:06:02.289Z,16.37
2017-09-03T02:07:12.009Z,16.32
2017-09-03T02:08:22.055Z,16.36
2017-09-03T02:09:32.667Z,16.34
2017-09-03T02:10:44.644Z,16.33
2017-09-03T02:11:55.962Z,16.32
2017-09-03T02:13:06.030Z,16.22
2017-09-03T02:14:16.384Z,16.26
2017-09-03T02:15:26.691Z,16.26
2017-09-03T02:16:36.567Z,16.26
2017-09-03T02:17:47.012Z,16.21
2017-09-03T02:18:57.337Z,16.11
2017-09-03T02:20:08.835Z,16.18
2017-09-03T02:21:19.685Z,16.1
2017-09-03T02:22:30.023Z,16.08
2017-09-03T02:23:41.665Z,16.07
2017-09-03T02:24:54.220Z,16.11
2017-09-03T02:26:05.214Z,16.11
2017-09-03T02:27:17.001Z,16.11
2017-09-03T02:28:28.760Z,16
2017-09-03T02:29:38.779Z,15.99
2017-09-03T02:30:49.950Z,16
2017-09-03T02:32:00.967Z,16.11
2017-09-03T02:33:11.041Z,16
2017-09-03T02:34:21.088Z,16.02
2017-09-03T02:35:31.781Z,16.06
2017-09-03T02:36:43.683Z,16.04
2017-09-03T02:37:53.995Z,16.14
2017-09-03T02:39:04.022Z,16.07
2017-09-03T02:40:14.592Z,16.16
2017-09-03T02:41:26.375Z,16.21
2017-09-03T02:42:37.508Z,16.26
2017-09-03T02:43:47.847Z,16.33
2017-09-03T02:44:59.102Z,16.27
2017-09-03T02:46:09.340Z,16.34
2017-09-03T02:47:20.890Z,16.29
2017-09-03T02:48:31.399Z,16.37
2017-09-03T02:49:42.673Z,16.37
2017-09-03T02:50:53.806Z,16.37
2017-09-03T02:52:04.112Z,16.42
2017-09-03T02:53:14.451Z,16.42
2017-09-03T02:54:25.691Z,16.47
2017-09-03T02:55:37.854Z,16.37
2017-09-03T02:56:49.045Z,16.39
2017-09-03T02:57:59.377Z,16.45
2017-09-03T02:59:10.921Z,16.45
2017-09-03T03:00:21.628Z,16.49
2017-09-03T03:01:31.952Z,16.51
2017-09-03T03:33:23.992Z,14.45
2017-09-03T03:34:34.315Z,14.33
2017-09-03T03:35:44.625Z,14.3
2017-09-03T03:36:54.635Z,14.42
2017-09-03T03:38:04.979Z,14.46
2017-09-03T03:39:14.998Z,14.51
2017-09-03T03:40:25.338Z,14.64
2017-09-03T03:41:35.678Z,14.63
2017-09-03T03:42:47.961Z,14.85
2017-09-03T03:43:57.673Z,14.95
2017-09-03T03:45:07.702Z,15.07
2017-09-03T03:46:18.040Z,15.27
2017-09-03T03:47:28.362Z,15.31
2017-09-03T03:48:38.389Z,15.44
2017-09-03T03:49:48.738Z,15.47
2017-09-03T03:50:58.489Z,15.53
2017-09-03T03:52:10.887Z,15.65
2017-09-03T03:53:21.230Z,15.7
2017-09-03T03:54:31.563Z,15.75
2017-09-03T03:55:41.905Z,15.78
2017-09-03T03:56:52.275Z,15.8
2017-09-03T03:58:02.612Z,15.84
2017-09-03T03:59:12.324Z,15.96
2017-09-03T04:00:22.669Z,16
2017-09-03T04:01:33.163Z,16.06
2017-09-03T04:02:43.571Z,16.13
2017-09-03T04:03:53.612Z,16.11
2017-09-03T04:05:03.939Z,16.18
2017-09-03T04:06:14.275Z,16.25
2017-09-03T04:07:24.631Z,16.25
2017-09-03T04:08:34.665Z,16.34
2017-09-03T04:09:45.005Z,16.25
2017-09-03T04:10:55.023Z,16.34
2017-09-03T04:12:05.367Z,16.34
2017-09-03T04:13:15.725Z,16.34
2017-09-03T04:14:25.744Z,16.32
2017-09-03T04:15:36.080Z,16.26
2017-09-03T04:16:46.426Z,16.34
2017-09-03T04:17:56.468Z,16.32
2017-09-03T04:19:08.215Z,16.3
2017-09-03T04:20:18.551Z,16.27
2017-09-03T04:21:28.892Z,16.22
2017-09-03T04:22:38.909Z,16.3
2017-09-03T04:23:48.927Z,16.27
2017-09-03T04:24:58.948Z,16.25
2017-09-03T04:26:10.617Z,16.27
2017-09-03T04:27:20.954Z,16.26
2017-09-03T04:28:31.293Z,16.27
2017-09-03T04:29:41.314Z,16.27
2017-09-03T04:30:51.328Z,16.36
2017-09-03T04:32:01.669Z,16.36
2017-09-03T04:33:11.691Z,16.36
2017-09-03T04:34:22.024Z,16.32
2017-09-03T04:35:32.350Z,16.39
2017-09-03T04:36:42.670Z,16.39
2017-09-03T04:37:53.008Z,16.39
2017-09-03T04:39:03.344Z,16.37
2017-09-03T04:40:13.371Z,16.4
2017-09-03T04:41:23.712Z,16.34
2017-09-03T04:42:34.046Z,16.32
2017-09-03T04:43:44.432Z,16.27
2017-09-03T04:44:54.786Z,16.3
2017-09-03T04:46:05.121Z,16.22
2017-09-03T04:47:15.454Z,16.1
2017-09-03T04:48:25.155Z,16.11
2017-09-03T04:49:35.417Z,16.1
2017-09-03T04:50:45.432Z,16.06
2017-09-03T04:51:56.336Z,16.1
2017-09-03T04:53:06.044Z,16.08
2017-09-03T04:54:16.390Z,16.08
2017-09-03T04:55:26.459Z,16.04
2017-09-03T04:56:36.791Z,16.02
2017-09-03T04:57:46.799Z,16.07
2017-09-03T04:58:56.818Z,16
2017-09-03T05:00:07.146Z,15.95
2017-09-03T05:01:17.232Z,15.96
2017-09-03T05:02:27.236Z,15.99
2017-09-03T05:03:38.753Z,15.98
2017-09-03T05:04:50.834Z,16.06
2017-09-03T05:06:00.850Z,15.92
2017-09-03T05:07:11.337Z,15.98
2017-09-03T05:08:21.679Z,15.84
2017-09-03T05:09:32.013Z,15.89
2017-09-03T05:10:42.345Z,15.98
2017-09-03T05:11:52.375Z,15.96
2017-09-03T05:13:02.431Z,15.98
2017-09-03T05:14:12.769Z,15.93
2017-09-03T05:15:22.794Z,16.02
2017-09-03T05:16:32.818Z,15.99
2017-09-03T05:17:42.863Z,15.98
2017-09-03T05:18:53.200Z,15.89
2017-09-03T05:20:03.542Z,15.88
2017-09-03T05:21:13.880Z,15.98
2017-09-03T05:22:24.232Z,16.02
2017-09-03T05:23:34.590Z,15.98
2017-09-03T05:24:44.925Z,15.99
2017-09-03T05:25:55.262Z,16.07
2017-09-03T05:27:05.639Z,16.1
2017-09-03T05:28:15.984Z,16.08
2017-09-03T05:29:26.317Z,15.96
2017-09-03T05:30:36.669Z,16
2017-09-03T05:31:47.015Z,15.96
2017-09-03T05:32:57.041Z,16.04
2017-09-03T05:34:07.384Z,15.98
2017-09-03T05:35:17.096Z,16.07
2017-09-03T05:36:27.439Z,16.08
2017-09-03T05:37:37.455Z,16.21
2017-09-03T05:38:47.782Z,16.11
2017-09-03T05:39:58.123Z,16.17
2017-09-03T05:41:08.449Z,16.3
2017-09-03T05:42:18.496Z,16.26
2017-09-03T05:43:28.842Z,16.33
2017-09-03T05:44:39.388Z,16.36
2017-09-03T05:45:49.724Z,16.47
2017-09-03T05:47:00.116Z,16.45
2017-09-03T05:48:10.463Z,16.49
2017-09-03T05:49:20.813Z,16.47
2017-09-03T05:50:31.152Z,16.33
2017-09-03T05:51:41.196Z,16.36
2017-09-03T05:52:51.589Z,16.37
2017-09-03T05:54:01.616Z,16.42
2017-09-03T05:55:11.936Z,16.39
2017-09-03T05:56:22.259Z,16.4
2017-09-03T05:57:32.594Z,16.42
2017-09-03T05:58:42.940Z,16.49
2017-09-03T05:59:53.278Z,16.44
2017-09-03T06:01:03.628Z,16.55
2017-09-03T06:02:13.967Z,16.55
2017-09-03T06:03:23.987Z,16.59
2017-09-03T06:04:34.344Z,16.58
2017-09-03T06:05:44.680Z,16.57
2017-09-03T06:06:54.715Z,16.59
2017-09-03T06:08:05.289Z,16.55
2017-09-03T06:09:15.642Z,16.55
2017-09-03T06:10:26.061Z,16.57
2017-09-03T06:11:36.417Z,16.52
2017-09-03T06:12:46.801Z,16.52
2017-09-03T06:13:57.130Z,16.65
2017-09-03T06:15:07.475Z,16.65
2017-09-03T06:16:17.814Z,16.65
2017-09-03T06:17:28.131Z,16.67
2017-09-03T06:18:38.153Z,16.62
2017-09-03T06:19:48.497Z,16.67
2017-09-03T06:20:58.834Z,16.65
2017-09-03T06:22:09.225Z,16.76
2017-09-03T06:23:19.568Z,16.69
2017-09-03T06:24:30.191Z,16.67
2017-09-03T06:25:40.553Z,16.66
2017-09-03T06:26:50.915Z,16.74
2017-09-03T06:28:01.009Z,16.69
2017-09-03T06:29:11.058Z,16.67
2017-09-03T06:30:21.089Z,16.73
2017-09-03T06:31:31.441Z,16.76
2017-09-03T06:32:41.773Z,16.76
2017-09-03T06:33:52.420Z,16.81
2017-09-03T06:35:02.749Z,16.87
2017-09-03T06:36:13.086Z,16.77
2017-09-03T06:37:23.424Z,16.87
2017-09-03T06:38:33.767Z,16.92
2017-09-03T06:39:43.789Z,16.97
2017-09-03T06:40:54.156Z,16.88
2017-09-03T06:42:04.949Z,16.91
2017-09-03T06:43:14.980Z,16.99
2017-09-03T06:44:25.328Z,16.9
2017-09-03T06:45:35.672Z,16.87
2017-09-03T06:46:46.016Z,16.72
2017-09-03T06:47:56.364Z,16.7
2017-09-03T06:49:06.707Z,16.62
2017-09-03T06:50:17.082Z,16.57
2017-09-03T06:51:27.481Z,16.58
2017-09-03T06:52:37.510Z,16.58
2017-09-03T06:53:47.856Z,16.59
2017-09-03T06:54:58.205Z,16.57
2017-09-03T06:56:08.543Z,16.57
2017-09-03T06:57:18.594Z,16.55
2017-09-03T06:58:28.933Z,16.52
2017-09-03T06:59:39.267Z,16.39
2017-09-03T07:00:49.626Z,16.45
2017-09-03T07:01:59.971Z,16.42
2017-09-03T07:03:10.017Z,16.4
2017-09-03T07:04:20.364Z,16.42
2017-09-03T07:05:30.387Z,16.45
2017-09-03T07:06:40.729Z,16.52
2017-09-03T07:07:50.754Z,16.4
2017-09-03T07:09:01.084Z,16.4
2017-09-03T07:10:11.433Z,16.58
2017-09-03T07:11:21.766Z,16.58
2017-09-03T07:12:32.119Z,16.66
2017-09-03T07:13:41.828Z,16.65
2017-09-03T07:14:51.847Z,16.67
2017-09-03T07:16:02.198Z,16.7
2017-09-03T07:17:12.559Z,16.7
2017-09-03T07:18:22.262Z,16.8
2017-09-03T07:19:32.604Z,16.91
2017-09-03T07:20:42.959Z,16.91
2017-09-03T07:21:53.292Z,16.95
2017-09-03T07:23:03.683Z,16.92
2017-09-03T07:24:14.046Z,16.92
2017-09-03T07:25:24.385Z,16.97
2017-09-03T07:26:34.422Z,16.97
2017-09-03T07:27:44.765Z,17
2017-09-03T07:28:55.166Z,17.1
2017-09-03T07:30:05.532Z,17.2
2017-09-03T07:31:15.560Z,17.2
2017-09-03T07:32:25.584Z,17.32
2017-09-03T07:33:35.939Z,17.35
2017-09-03T07:34:46.303Z,17.45
2017-09-03T07:35:56.669Z,17.54
2017-09-03T07:37:07.048Z,17.58
2017-09-03T07:38:17.088Z,17.73
2017-09-03T07:39:27.453Z,17.79
2017-09-03T07:40:38.172Z,17.76
2017-09-03T07:41:48.536Z,17.87
2017-09-03T07:42:58.893Z,17.92
2017-09-03T07:44:08.941Z,18.02
2017-09-03T07:45:19.301Z,18.01
2017-09-03T07:46:29.719Z,18.11
2017-09-03T07:47:40.073Z,18.17
2017-09-03T07:48:50.415Z,18.16
2017-09-03T07:50:00.788Z,18.17
2017-09-03T07:51:11.142Z,18.05
2017-09-03T07:52:21.508Z,17.95
2017-09-03T07:53:31.559Z,17.94
2017-09-03T07:54:41.927Z,17.84
2017-09-03T07:55:52.292Z,17.84
2017-09-03T07:57:02.654Z,17.83
2017-09-03T07:58:13.044Z,17.87
2017-09-03T07:59:23.097Z,17.79
2017-09-03T08:00:33.130Z,17.77
2017-09-03T08:01:42.852Z,17.86
2017-09-03T08:02:53.197Z,17.88
2017-09-03T08:04:03.601Z,17.95
2017-09-03T08:05:13.955Z,17.96
2017-09-03T08:06:24.307Z,18.06
2017-09-03T08:07:34.663Z,18.05
2017-09-03T08:08:44.696Z,18.13
2017-09-03T08:09:54.743Z,18.14
2017-09-03T08:11:05.098Z,18.17
2017-09-03T08:12:14.832Z,18.19
2017-09-03T08:13:25.184Z,18.17
2017-09-03T08:14:35.563Z,18.19
2017-09-03T08:15:45.970Z,18.19
2017-09-03T08:16:56.325Z,18.24
2017-09-03T08:18:06.686Z,18.26
2017-09-03T08:19:17.034Z,18.35
2017-09-03T08:20:27.066Z,18.45
2017-09-03T08:21:37.423Z,18.47
2017-09-03T08:22:47.770Z,18.54
2017-09-03T08:23:58.113Z,18.6
2017-09-03T08:25:08.468Z,18.61
2017-09-03T08:26:18.847Z,18.69
2017-09-03T08:27:29.205Z,18.71
2017-09-03T08:28:41.229Z,18.87
2017-09-03T08:29:50.631Z,18.75
2017-09-03T08:31:00.975Z,18.78
2017-09-03T08:32:11.337Z,18.76
2017-09-03T08:33:21.699Z,18.69
2017-09-03T08:34:32.067Z,18.68
2017-09-03T08:35:42.429Z,18.54
2017-09-03T08:36:52.778Z,18.56
2017-09-03T08:38:03.151Z,18.66
2017-09-03T08:39:13.178Z,18.72
2017-09-03T08:40:22.922Z,18.69
2017-09-03T08:41:32.964Z,18.81
2017-09-03T08:42:43.328Z,18.89
2017-09-03T08:43:53.675Z,19.05
2017-09-03T08:45:04.022Z,18.94
2017-09-03T08:46:14.366Z,19.06
2017-09-03T08:47:24.397Z,19.15
2017-09-03T08:48:34.798Z,19.24
2017-09-03T08:49:44.851Z,19.27
2017-09-03T08:50:55.198Z,19.35
2017-09-03T08:52:05.236Z,19.53
2017-09-03T08:53:14.956Z,19.5
2017-09-03T08:54:25.770Z,19.63
2017-09-03T08:55:36.123Z,19.74
2017-09-03T08:56:46.525Z,19.72
2017-09-03T08:57:56.887Z,19.83
2017-09-03T08:59:06.928Z,20.02
2017-09-03T09:00:17.985Z,20.1
2017-09-03T09:01:28.314Z,20.05
2017-09-03T09:02:38.718Z,19.95
2017-09-03T09:03:49.067Z,19.79
2017-09-03T09:04:59.421Z,19.83
2017-09-03T09:06:09.768Z,19.83
2017-09-03T09:07:20.107Z,19.85
2017-09-03T09:08:30.197Z,19.75
2017-09-03T09:09:40.541Z,19.72
2017-09-03T09:10:50.886Z,19.78
2017-09-03T09:12:02.479Z,19.85
2017-09-03T09:13:12.831Z,19.82
2017-09-03T09:14:22.889Z,20.01
2017-09-03T09:15:33.244Z,20.1
2017-09-03T09:16:43.599Z,20.12
2017-09-03T09:17:53.944Z,20.23
2017-09-03T09:19:04.280Z,20.37
2017-09-03T09:20:14.686Z,20.51
2017-09-03T09:21:24.713Z,20.75
2017-09-03T09:22:35.064Z,20.96
2017-09-03T09:23:45.407Z,21.19
2017-09-03T09:24:55.756Z,21.37
2017-09-03T09:26:05.845Z,21.53
2017-09-03T09:27:15.865Z,21.64
2017-09-03T09:28:26.212Z,21.74
2017-09-03T09:29:36.541Z,21.77
2017-09-03T09:30:46.880Z,21.89
2017-09-03T09:31:57.277Z,21.97
2017-09-03T09:33:07.313Z,21.97
2017-09-03T09:34:17.688Z,22.16
2017-09-03T09:35:28.028Z,22.29
2017-09-03T09:36:38.059Z,22.27
2017-09-03T09:37:48.456Z,22.41
2017-09-03T09:38:58.475Z,22.41
2017-09-03T09:40:08.493Z,22.51
2017-09-03T09:41:18.822Z,22.45
2017-09-03T09:42:28.532Z,22.44
2017-09-03T09:43:38.920Z,22.44
2017-09-03T09:44:49.262Z,22.38
2017-09-03T09:45:59.595Z,22.29
2017-09-03T09:47:09.930Z,22.22
2017-09-03T09:48:20.012Z,22.08
2017-09-03T09:49:30.414Z,21.86
2017-09-03T09:50:40.774Z,21.73
2017-09-03T09:51:50.800Z,21.78
2017-09-03T09:53:00.519Z,21.89
2017-09-03T09:54:10.867Z,21.94
2017-09-03T09:55:21.212Z,21.97
2017-09-03T09:56:31.250Z,22.11
2017-09-03T09:57:41.620Z,22.12
2017-09-03T09:58:51.656Z,22.12
2017-09-03T10:00:02.004Z,22.12
2017-09-03T10:01:12.363Z,22.18
2017-09-03T10:02:22.705Z,22.07
2017-09-03T10:03:35.680Z,22.15
2017-09-03T10:04:45.705Z,22.12
2017-09-03T10:05:56.036Z,22.14
2017-09-03T10:07:06.391Z,22.09
2017-09-03T10:08:16.742Z,21.74
2017-09-03T10:09:27.087Z,21.51
2017-09-03T10:10:37.118Z,21.41
2017-09-03T10:11:47.509Z,21.41
2017-09-03T10:12:57.548Z,21.38
2017-09-03T10:14:07.887Z,21.48
2017-09-03T10:15:17.925Z,21.31
2017-09-03T10:16:28.274Z,21.36
2017-09-03T10:17:38.693Z,21.45
2017-09-03T10:18:49.038Z,21.52
2017-09-03T10:19:59.406Z,21.7
2017-09-03T10:21:09.438Z,21.93
2017-09-03T10:22:19.825Z,22.14
2017-09-03T10:23:29.858Z,22.27
2017-09-03T10:24:40.204Z,22.38
2017-09-03T10:25:50.540Z,22.39
2017-09-03T10:27:00.337Z,22.45
2017-09-03T10:28:10.699Z,22.42
2017-09-03T10:29:21.082Z,22.52
2017-09-03T10:30:31.441Z,22.64
2017-09-03T10:31:41.804Z,22.75
2017-09-03T10:32:52.180Z,22.89
2017-09-03T10:34:02.542Z,22.89
2017-09-03T10:35:12.951Z,22.86
2017-09-03T10:36:23.317Z,23
2017-09-03T10:37:33.678Z,22.99
2017-09-03T10:38:44.058Z,23.07
2017-09-03T10:39:54.410Z,23.16
2017-09-03T10:41:04.768Z,23.22
2017-09-03T10:42:15.144Z,23.19
2017-09-03T10:43:25.488Z,23.19
2017-09-03T10:44:35.835Z,23.22
2017-09-03T10:45:46.191Z,23.47
2017-09-03T10:46:56.692Z,23.66
2017-09-03T10:48:06.734Z,23.78
2017-09-03T10:49:17.087Z,23.87
2017-09-03T10:50:27.125Z,24
2017-09-03T10:51:37.156Z,24.03
2017-09-03T10:52:47.505Z,24.12
2017-09-03T10:53:57.834Z,24.18
2017-09-03T10:55:07.879Z,24.26
2017-09-03T10:56:18.241Z,24.34
2017-09-03T10:57:29.754Z,24.46
2017-09-03T10:58:39.787Z,24.59
2017-09-03T10:59:50.185Z,24.69
2017-09-03T11:01:00.538Z,24.78
2017-09-03T11:02:10.903Z,24.71
2017-09-03T11:03:21.245Z,24.67
2017-09-03T11:04:31.634Z,24.63
2017-09-03T11:05:41.677Z,24.54
2017-09-03T11:06:52.024Z,24.45
2017-09-03T11:08:02.054Z,24.32
2017-09-03T11:09:12.402Z,24.21
2017-09-03T11:10:22.834Z,24.09
2017-09-03T11:11:32.858Z,23.89
2017-09-03T11:12:43.215Z,23.75
2017-09-03T11:13:53.234Z,23.75
2017-09-03T11:15:02.942Z,23.75
2017-09-03T11:16:13.288Z,23.94
2017-09-03T11:17:23.333Z,24.21
2017-09-03T11:18:33.354Z,24.52
2017-09-03T11:19:43.690Z,24.48
2017-09-03T11:20:54.030Z,24.36
2017-09-03T11:22:04.442Z,24.56
2017-09-03T11:23:14.794Z,24.83
2017-09-03T11:24:25.159Z,24.9
2017-09-03T11:25:35.518Z,24.7
2017-09-03T11:26:45.866Z,24.42
2017-09-03T11:27:56.253Z,24.4
2017-09-03T11:29:05.966Z,24.56
2017-09-03T11:30:15.992Z,24.54
2017-09-03T11:31:26.340Z,24.17
2017-09-03T11:32:37.832Z,24.07
2017-09-03T11:33:48.232Z,24.12
2017-09-03T11:34:58.612Z,24.04
2017-09-03T11:36:08.649Z,23.92
2017-09-03T11:37:19.002Z,24.32
2017-09-03T11:38:29.370Z,24.44
2017-09-03T11:39:39.737Z,23.9
2017-09-03T11:40:50.097Z,23.7
2017-09-03T11:42:00.124Z,23.77
2017-09-03T11:43:10.488Z,23.84
2017-09-03T11:44:20.846Z,24.55
2017-09-03T11:45:31.187Z,24.71
2017-09-03T11:46:41.551Z,24.33
2017-09-03T11:47:51.585Z,24.26
2017-09-03T11:49:01.951Z,24.11
2017-09-03T11:50:11.968Z,24.32
2017-09-03T11:51:22.384Z,24.71
2017-09-03T11:52:32.748Z,25.05
2017-09-03T11:53:43.080Z,24.7
2017-09-03T11:54:53.445Z,24.14
2017-09-03T11:56:03.482Z,24.58
2017-09-03T11:57:13.844Z,24.51
2017-09-03T11:58:24.186Z,24.58
2017-09-03T11:59:34.540Z,24.09
2017-09-03T12:00:46.202Z,23.96
2017-09-03T12:01:57.267Z,24.32
2017-09-03T12:03:07.677Z,24.33
2017-09-03T12:04:18.047Z,24.19
2017-09-03T12:05:28.396Z,24.09
2017-09-03T12:06:38.751Z,24.09
2017-09-03T12:07:49.110Z,24.15
2017-09-03T12:08:59.208Z,24.15
2017-09-03T12:10:09.548Z,24.11
2017-09-03T12:11:19.896Z,24.12
2017-09-03T12:12:29.608Z,24.04
2017-09-03T12:13:39.003Z,23.99
2017-09-03T12:14:49.398Z,24.11
2017-09-03T12:15:59.741Z,24.58
2017-09-03T12:17:10.098Z,25.02
2017-09-03T12:18:20.121Z,25.27
2017-09-03T12:19:30.139Z,25.2
2017-09-03T12:20:40.488Z,25.29
2017-09-03T12:21:50.850Z,25.42
2017-09-03T12:23:01.211Z,25.52
2017-09-03T12:24:11.253Z,25.75
2017-09-03T12:25:21.630Z,25.75
2017-09-03T12:26:32.020Z,25.79
2017-09-03T12:27:42.064Z,25.76
2017-09-03T12:28:52.431Z,25.71
2017-09-03T12:30:02.787Z,25.97
2017-09-03T12:31:13.129Z,26.07
2017-09-03T12:32:23.532Z,26.03
2017-09-03T12:33:33.869Z,26.01
2017-09-03T12:34:44.240Z,25.96
2017-09-03T12:35:54.636Z,25.99
2017-09-03T12:37:04.968Z,26.06
2017-09-03T12:38:15.361Z,26
2017-09-03T12:39:25.407Z,25.94
2017-09-03T12:40:35.469Z,25.85
2017-09-03T12:41:45.825Z,25.88
2017-09-03T12:42:56.197Z,25.7
2017-09-03T12:44:06.542Z,25.63
2017-09-03T12:45:16.889Z,25.33
2017-09-03T12:46:27.243Z,25.12
2017-09-03T12:47:37.596Z,24.96
2017-09-03T12:48:47.626Z,24.77
2017-09-03T12:49:58.015Z,24.82
2017-09-03T12:51:08.365Z,24.67
2017-09-03T12:52:18.386Z,24.64
2017-09-03T12:53:28.728Z,24.63
2017-09-03T12:54:39.071Z,24.67
2017-09-03T12:55:49.421Z,24.61
2017-09-03T12:56:59.461Z,24.58
2017-09-03T12:58:09.822Z,24.59
2017-09-03T12:59:19.851Z,24.56
2017-09-03T13:00:30.747Z,24.45
2017-09-03T13:01:41.463Z,24.4
2017-09-03T13:02:52.114Z,24.42
2017-09-03T13:04:03.586Z,24.42
2017-09-03T13:05:14.540Z,24.44
2017-09-03T13:06:24.884Z,24.46
2017-09-03T13:07:35.574Z,24.42
2017-09-03T13:08:47.576Z,24.56
2017-09-03T13:09:57.811Z,24.58
2017-09-03T13:11:07.560Z,24.7
2017-09-03T13:12:18.508Z,24.69
2017-09-03T13:13:28.925Z,24.67
2017-09-03T13:14:39.288Z,24.67
2017-09-03T13:15:49.625Z,24.55
2017-09-03T13:17:00.600Z,24.66
2017-09-03T13:18:11.318Z,24.61
2017-09-03T13:19:21.678Z,24.59
2017-09-03T13:20:32.019Z,24.78
2017-09-03T13:21:42.592Z,24.74
2017-09-03T13:22:53.531Z,24.67
2017-09-03T13:24:03.889Z,24.67
2017-09-03T13:25:15.324Z,24.67
2017-09-03T13:26:27.040Z,24.56
2017-09-03T13:27:37.990Z,24.37
2017-09-03T13:28:47.718Z,24.15
2017-09-03T13:29:57.764Z,24
2017-09-03T13:31:08.434Z,23.82
2017-09-03T13:32:18.785Z,23.82
2017-09-03T13:33:28.506Z,23.81
2017-09-03T13:34:38.237Z,23.78
2017-09-03T13:35:48.550Z,23.78
2017-09-03T13:36:59.236Z,23.81
2017-09-03T13:38:09.271Z,23.77
2017-09-03T13:39:20.655Z,23.72
2017-09-03T13:40:31.841Z,23.74
2017-09-03T13:41:43.376Z,23.74
2017-09-03T13:42:54.060Z,23.62
2017-09-03T13:44:04.406Z,23.63
2017-09-03T13:45:15.629Z,23.64
2017-09-03T13:46:25.468Z,23.6
2017-09-03T13:47:35.814Z,23.63
2017-09-03T13:48:46.404Z,23.6
2017-09-03T13:49:56.874Z,23.56
2017-09-03T13:51:07.788Z,23.64
2017-09-03T13:52:18.507Z,23.67
2017-09-03T13:53:29.060Z,23.75
2017-09-03T13:54:39.151Z,23.77
2017-09-03T13:55:50.363Z,23.89
2017-09-03T13:57:01.083Z,23.94
2017-09-03T13:58:11.439Z,24
2017-09-03T13:59:21.765Z,24.02
2017-09-03T14:00:33.181Z,23.99
2017-09-03T14:01:47.293Z,24.03
2017-09-03T14:02:59.484Z,24.03
2017-09-03T14:04:10.408Z,24.03
2017-09-03T14:05:21.504Z,24.14
2017-09-03T14:06:32.113Z,24.18
2017-09-03T14:07:43.221Z,24.32
2017-09-03T14:08:53.593Z,24.29
2017-09-03T14:10:05.360Z,24.33
2017-09-03T14:11:15.127Z,24.44
2017-09-03T14:12:24.877Z,24.46
2017-09-03T14:13:34.943Z,24.45
2017-09-03T14:14:46.196Z,24.56
2017-09-03T14:15:56.911Z,24.58
2017-09-03T14:17:07.107Z,24.59
2017-09-03T14:18:17.162Z,24.49
2017-09-03T14:19:28.932Z,24.48
2017-09-03T14:20:39.161Z,24.44
2017-09-03T14:21:49.810Z,24.45
2017-09-03T14:23:00.236Z,24.34
2017-09-03T14:24:10.624Z,24.26
2017-09-03T14:25:21.001Z,24.22
2017-09-03T14:26:35.200Z,24.22
2017-09-03T14:27:45.518Z,24.17
2017-09-03T14:28:54.929Z,24.17
2017-09-03T14:30:05.427Z,24.11
2017-09-03T14:31:15.856Z,24.09
2017-09-03T14:32:26.224Z,24.04
2017-09-03T14:33:35.932Z,24.07
2017-09-03T14:34:46.279Z,24
2017-09-03T14:35:56.910Z,24
2017-09-03T14:37:08.395Z,23.96
2017-09-03T14:38:18.758Z,23.84
2017-09-03T14:39:28.358Z,23.81
2017-09-03T14:40:39.159Z,23.77
2017-09-03T14:41:49.823Z,23.74
2017-09-03T14:43:00.190Z,23.82
2017-09-03T14:44:11.040Z,23.85
2017-09-03T14:45:22.664Z,23.89
2017-09-03T14:46:33.226Z,24
2017-09-03T14:47:43.611Z,24.03
2017-09-03T14:48:54.007Z,23.99
2017-09-03T14:50:04.114Z,23.94
2017-09-03T14:51:14.144Z,23.93
2017-09-03T14:52:24.499Z,24.02
2017-09-03T14:53:34.856Z,24
2017-09-03T14:54:46.423Z,23.99
2017-09-03T14:56:01.640Z,24.08
2017-09-03T14:57:11.361Z,24.33
2017-09-03T14:58:22.618Z,24.45
2017-09-03T14:59:32.990Z,24.37
2017-09-03T15:00:43.350Z,24.4
2017-09-03T15:01:53.394Z,24.52
2017-09-03T15:03:03.090Z,24.46
2017-09-03T15:04:12.862Z,24.4
2017-09-03T15:05:23.213Z,24.44
2017-09-03T15:06:33.570Z,24.34
2017-09-03T15:07:43.608Z,24.3
2017-09-03T15:08:53.638Z,24.27
2017-09-03T15:10:03.998Z,24.27
2017-09-03T15:11:14.358Z,24.33
2017-09-03T15:12:24.729Z,24.58
2017-09-03T15:13:35.056Z,24.82
2017-09-03T15:14:45.105Z,24.94
2017-09-03T15:15:55.526Z,25.12
2017-09-03T15:17:07.237Z,25.05
2017-09-03T15:18:17.618Z,24.89
2017-09-03T15:19:27.365Z,24.83
2017-09-03T15:20:37.799Z,24.74
2017-09-03T15:21:48.272Z,24.93
2017-09-03T15:22:58.654Z,24.9
2017-09-03T15:24:11.180Z,24.74
2017-09-03T15:25:21.553Z,24.45
2017-09-03T15:26:31.925Z,24.09
2017-09-03T15:27:41.685Z,23.84
2017-09-03T15:28:51.735Z,23.62
2017-09-03T15:30:02.119Z,23.41
2017-09-03T15:31:12.497Z,23.1
2017-09-03T15:32:22.857Z,22.96
2017-09-03T15:33:32.948Z,22.76
2017-09-03T15:34:42.688Z,22.66
2017-09-03T15:35:52.732Z,22.69
2017-09-03T15:37:03.110Z,22.63
2017-09-03T15:46:52.525Z,22.54
2017-09-03T15:48:02.903Z,22.51
2017-09-03T15:49:13.265Z,22.51
2017-09-03T15:50:23.639Z,22.51
2017-09-03T15:51:34.010Z,22.59